Time;durP1;ratioP1;P1;durP2;ratioP2;P2;SDS_P1;SDS_P2;PMS_P1;PMS_P2;Temp;Humidity;BMP_temperature;BMP_pressure;BME280_temperature;BME280_humidity;BME280_pressure;Samples;Min_cycle;Max_cycle;Signal;HPM_P1;HPM_P2
2020/12/08 00:01:48;;;;;;;32.95;21.23;;;;;;;6.34;85.06;100599.00;5043675;28;20180;-77
2020/12/08 00:04:13;;;;;;;33.83;20.38;;;;;;;6.36;85.39;100613.13;5046085;28;20033;-77
2020/12/08 00:06:39;;;;;;;37.28;22.42;;;;;;;6.35;85.18;100600.63;5048505;28;20033;-77
2020/12/08 00:09:04;;;;;;;33.92;20.48;;;;;;;6.36;85.33;100607.72;5044691;28;20025;-77
2020/12/08 00:11:29;;;;;;;40.17;21.85;;;;;;;6.35;85.34;100606.03;5039389;28;20387;-76
2020/12/08 00:13:55;;;;;;;32.10;20.73;;;;;;;6.37;85.52;100609.34;5049932;28;20035;-76
2020/12/08 00:16:20;;;;;;;35.67;21.63;;;;;;;6.38;85.29;100611.81;5052252;28;20017;-77
2020/12/08 00:18:46;;;;;;;35.47;21.83;;;;;;;6.38;85.27;100608.25;5049866;28;20079;-78
2020/12/08 00:21:11;;;;;;;38.75;20.77;;;;;;;6.40;85.26;100604.22;5042915;28;20029;-76
2020/12/08 00:23:36;;;;;;;34.25;20.30;;;;;;;6.39;85.27;100601.78;5042556;28;20021;-77
2020/12/08 00:26:02;;;;;;;34.38;20.65;;;;;;;6.40;85.39;100593.41;5042393;28;20482;-77
2020/12/08 00:28:27;;;;;;;37.20;22.50;;;;;;;6.41;85.52;100594.22;5040077;28;20493;-77
2020/12/08 00:30:53;;;;;;;36.60;21.30;;;;;;;6.41;85.25;100599.63;5048424;28;20047;-77
2020/12/08 00:33:18;;;;;;;38.45;22.10;;;;;;;6.41;85.62;100599.63;5051097;28;20017;-77
2020/12/08 00:35:44;;;;;;;35.17;21.20;;;;;;;6.41;85.52;100600.47;5049608;28;20049;-76
2020/12/08 00:38:09;;;;;;;34.08;20.65;;;;;;;6.42;85.20;100602.09;5045227;28;20068;-76
2020/12/08 00:40:35;;;;;;;34.85;21.70;;;;;;;6.42;85.13;100612.13;5049726;28;20033;-76
2020/12/08 00:43:00;;;;;;;38.85;21.60;;;;;;;6.42;85.36;100612.13;5044617;28;20033;-78
2020/12/08 00:45:25;;;;;;;36.85;22.13;;;;;;;6.44;85.26;100615.41;5042022;28;20040;-76
2020/12/08 00:47:51;;;;;;;36.00;23.45;;;;;;;6.43;85.36;100613.75;5050388;28;20084;-76
2020/12/08 00:50:16;;;;;;;37.75;20.88;;;;;;;6.44;85.47;100620.81;5045785;28;20029;-77
2020/12/08 00:52:42;;;;;;;34.28;20.45;;;;;;;6.43;85.56;100630.00;5051675;28;20025;-76
2020/12/08 00:55:07;;;;;;;40.33;21.15;;;;;;;6.44;85.46;100632.47;5048878;28;20474;-76
2020/12/08 00:57:33;;;;;;;38.60;23.02;;;;;;;6.45;85.50;100625.97;5049752;28;20079;-76
2020/12/08 00:59:58;;;;;;;34.35;20.63;;;;;;;6.46;85.51;100634.91;5049382;28;20104;-76
2020/12/08 01:02:24;;;;;;;41.65;23.55;;;;;;;6.47;85.28;100631.13;5034401;28;20037;-77
2020/12/08 01:04:49;;;;;;;38.03;22.15;;;;;;;6.47;85.41;100631.13;5050307;28;20024;-76
2020/12/08 01:07:15;;;;;;;38.65;22.85;;;;;;;6.47;85.27;100631.13;5047796;28;20028;-76
2020/12/08 01:09:40;;;;;;;34.35;20.50;;;;;;;6.47;85.28;100636.56;5033142;28;20033;-77
2020/12/08 01:12:06;;;;;;;38.53;22.70;;;;;;;6.46;85.41;100629.47;5050448;28;20047;-76
2020/12/08 01:14:32;;;;;;;38.50;22.25;;;;;;;6.46;85.57;100634.91;5051124;28;20033;-77
2020/12/08 01:17:00;;;;;;;43.67;23.73;;;;;;;6.46;85.59;100640.31;5053785;28;20386;-77
2020/12/08 01:19:26;;;;;;;45.47;23.73;;;;;;;6.45;85.45;100636.78;5053038;28;20033;-76
2020/12/08 01:21:52;;;;;;;42.17;23.85;;;;;;;6.46;85.31;100637.59;5048552;28;20513;-77
2020/12/08 01:24:18;;;;;;;36.70;22.23;;;;;;;6.44;85.47;100642.47;5052615;28;20044;-77
2020/12/08 01:26:44;;;;;;;40.55;23.38;;;;;;;6.45;85.33;100644.91;5051216;28;20035;-76
2020/12/08 01:29:09;;;;;;;38.47;23.45;;;;;;;6.47;85.45;100652.00;5051122;28;20021;-77
2020/12/08 01:31:34;;;;;;;40.88;24.33;;;;;;;6.48;85.53;100653.63;5036747;28;20060;-76
2020/12/08 01:34:00;;;;;;;41.22;22.77;;;;;;;6.46;85.26;100656.56;5049699;28;20032;-76
2020/12/08 01:36:25;;;;;;;42.58;25.08;;;;;;;6.45;85.57;100652.22;5054578;28;20402;-77
2020/12/08 01:38:50;;;;;;;47.50;23.77;;;;;;;6.45;85.33;100655.75;5046656;28;20021;-77
2020/12/08 01:41:16;;;;;;;43.03;23.80;;;;;;;6.46;85.25;100656.56;5053603;28;20028;-77
2020/12/08 01:43:51;;;;;;;39.22;24.38;;;;;;;6.48;85.76;100654.44;5053596;28;20533;-76
2020/12/08 01:46:18;;;;;;;44.60;23.98;;;;;;;6.50;85.65;100657.72;5053850;28;20024;-77
2020/12/08 01:48:44;;;;;;;47.70;24.67;;;;;;;6.49;85.49;100661.47;5044046;28;20031;-76
2020/12/08 01:51:10;;;;;;;47.53;24.38;;;;;;;6.47;85.48;100658.22;5040825;28;20152;-77
2020/12/08 01:53:35;;;;;;;47.65;25.98;;;;;;;6.45;85.66;100657.66;5052976;28;20037;-77
2020/12/08 01:56:00;;;;;;;39.70;23.73;;;;;;;6.45;85.66;100665.78;5054098;28;20036;-76
2020/12/08 01:58:26;;;;;;;47.00;27.17;;;;;;;6.45;85.43;100654.94;5053851;28;20043;-77
2020/12/08 02:00:51;;;;;;;47.50;26.25;;;;;;;6.45;85.58;100660.34;5048280;28;20025;-78
2020/12/08 02:03:17;;;;;;;42.97;26.42;;;;;;;6.45;85.81;100654.94;5045822;28;20032;-76
2020/12/08 02:05:45;;;;;;;42.35;22.50;;;;;;;6.45;85.87;100660.34;5051648;28;20021;-77
2020/12/08 02:08:10;;;;;;;51.00;25.52;;;;;;;6.44;85.56;100653.31;5052687;28;20071;-77
2020/12/08 02:10:36;;;;;;;43.28;24.55;;;;;;;6.44;85.83;100653.31;5053550;28;20028;-77
2020/12/08 02:13:03;;;;;;;49.15;24.17;;;;;;;6.44;85.65;100664.13;5049510;28;20422;-77
2020/12/08 02:15:32;;;;;;;39.22;21.52;;;;;;;6.43;85.90;100659.78;5050676;28;20045;-77
2020/12/08 02:17:58;;;;;;;45.45;24.50;;;;;;;6.43;85.93;100662.47;5054369;28;20029;-77
2020/12/08 02:20:25;;;;;;;47.00;25.25;;;;;;;6.40;85.86;100658.38;5042827;28;20514;-77
2020/12/08 02:22:53;;;;;;;45.75;26.50;;;;;;;6.38;85.77;100663.25;5052411;28;20029;-77
2020/12/08 02:25:18;;;;;;;44.22;22.73;;;;;;;6.38;86.03;100665.13;5045916;28;20108;-78
2020/12/08 02:27:43;;;;;;;45.92;25.05;;;;;;;6.35;86.01;100671.03;5052854;28;20029;-76
2020/12/08 02:30:09;;;;;;;33.25;20.10;;;;;;;6.35;85.99;100681.84;5050333;28;20029;-77
2020/12/08 02:32:34;;;;;;;38.50;22.33;;;;;;;6.33;86.00;100678.56;5047535;28;20025;-77
2020/12/08 02:34:59;;;;;;;46.15;23.65;;;;;;;6.34;86.12;100682.94;5035584;28;20467;-77
2020/12/08 02:37:25;;;;;;;47.35;22.52;;;;;;;6.32;85.92;100685.06;5046227;28;20071;-78
2020/12/08 02:39:50;;;;;;;45.20;24.42;;;;;;;6.33;85.97;100686.69;5053196;28;20494;-79
2020/12/08 02:42:16;;;;;;;42.40;22.90;;;;;;;6.32;85.80;100693.19;5048140;28;20074;-77
2020/12/08 02:44:41;;;;;;;45.03;23.98;;;;;;;6.32;86.10;100693.19;5047811;28;20029;-78
2020/12/08 02:47:07;;;;;;;41.35;22.63;;;;;;;6.33;86.19;100697.53;5056170;28;20545;-76
2020/12/08 02:49:32;;;;;;;39.83;22.08;;;;;;;6.35;86.33;100695.41;5045098;28;20060;-77
2020/12/08 02:51:58;;;;;;;42.13;23.15;;;;;;;6.34;86.03;100693.78;5049258;28;20029;-77
2020/12/08 02:54:23;;;;;;;33.35;20.02;;;;;;;6.33;86.34;100698.38;5063051;28;20396;-77
2020/12/08 02:56:48;;;;;;;42.65;24.27;;;;;;;6.35;86.21;100698.09;5048399;28;20026;-77
2020/12/08 02:59:14;;;;;;;41.70;23.17;;;;;;;6.34;86.22;100697.28;5051842;28;20047;-77
2020/12/08 03:01:39;;;;;;;38.28;22.63;;;;;;;6.34;86.22;100689.16;5044743;28;20025;-77
2020/12/08 03:04:05;;;;;;;44.17;25.02;;;;;;;6.34;86.34;100685.66;5051148;28;20029;-77
2020/12/08 03:06:30;;;;;;;38.38;22.08;;;;;;;6.34;86.01;100686.47;5052380;28;20383;-77
2020/12/08 03:08:55;;;;;;;40.63;22.13;;;;;;;6.35;86.31;100689.97;5046420;28;20082;-77
2020/12/08 03:11:21;;;;;;;45.17;23.42;;;;;;;6.33;86.25;100689.41;5051300;28;20242;-77
2020/12/08 03:13:46;;;;;;;38.88;23.00;;;;;;;6.32;86.24;100690.47;5050793;28;20033;-78
2020/12/08 03:16:16;;;;;;;39.72;22.35;;;;;;;6.31;86.39;100686.97;5062970;28;20033;-77
2020/12/08 03:18:41;;;;;;;48.40;24.15;;;;;;;6.33;86.26;100689.41;5034622;28;20029;-78
2020/12/08 03:21:07;;;;;;;34.55;20.60;;;;;;;6.34;86.27;100686.47;5049933;28;20041;-77
2020/12/08 03:23:32;;;;;;;35.80;20.55;;;;;;;6.34;86.50;100689.16;5058584;28;20025;-77
2020/12/08 03:25:58;;;;;;;35.63;21.80;;;;;;;6.35;86.31;100692.69;5051949;28;20024;-76
2020/12/08 03:28:23;;;;;;;36.60;21.15;;;;;;;6.34;86.32;100691.06;5051520;28;20033;-77
2020/12/08 03:30:48;;;;;;;40.92;22.52;;;;;;;6.32;86.50;100694.00;5050163;28;20433;-78
2020/12/08 03:33:14;;;;;;;39.75;22.80;;;;;;;6.33;86.69;100695.66;5049695;28;20033;-78
2020/12/08 03:35:40;;;;;;;36.45;21.10;;;;;;;6.34;86.50;100697.28;5051676;28;20044;-78
2020/12/08 03:38:05;;;;;;;39.33;22.08;;;;;;;6.35;86.39;100689.97;5050725;28;20029;-78
2020/12/08 03:40:31;;;;;;;42.45;23.60;;;;;;;6.36;86.24;100695.16;5050665;28;20082;-77
2020/12/08 03:42:57;;;;;;;40.03;23.00;;;;;;;6.36;86.66;100694.34;5046637;28;20108;-77
2020/12/08 03:45:22;;;;;;;39.75;22.35;;;;;;;6.35;86.33;100682.66;5043688;28;20437;-77
2020/12/08 03:47:47;;;;;;;39.78;22.00;;;;;;;6.36;86.20;100689.75;5050741;28;20039;-77
2020/12/08 03:50:13;;;;;;;36.22;22.52;;;;;;;6.36;86.46;100695.16;5050829;28;20411;-77
2020/12/08 03:52:38;;;;;;;39.03;21.88;;;;;;;6.36;86.68;100688.94;5049673;28;20025;-77
2020/12/08 03:55:04;;;;;;;38.55;21.75;;;;;;;6.34;86.52;100686.47;5046077;28;20052;-77
2020/12/08 03:57:30;;;;;;;40.95;21.40;;;;;;;6.34;86.39;100696.47;5050649;28;20024;-77
2020/12/08 03:59:55;;;;;;;37.20;20.83;;;;;;;6.36;86.47;100694.34;5050719;28;20020;-78
2020/12/08 04:02:21;;;;;;;40.40;21.77;;;;;;;6.36;86.71;100695.16;5042317;28;20029;-77
2020/12/08 04:04:49;;;;;;;38.65;22.70;;;;;;;6.33;86.66;100698.38;5047394;28;20020;-77
2020/12/08 04:07:15;;;;;;;40.45;23.40;;;;;;;6.32;86.54;100693.19;5040826;28;20029;-77
2020/12/08 04:09:40;;;;;;;38.40;21.15;;;;;;;6.31;86.51;100702.38;5051037;28;20074;-77
2020/12/08 04:12:06;;;;;;;36.47;21.13;;;;;;;6.30;86.66;100700.72;5048029;28;20039;-78
2020/12/08 04:14:31;;;;;;;33.67;20.27;;;;;;;6.29;86.69;100699.09;5047561;28;20021;-77
2020/12/08 04:16:56;;;;;;;39.38;20.60;;;;;;;6.29;86.74;100704.53;5049585;28;20101;-78
2020/12/08 04:19:22;;;;;;;41.65;22.27;;;;;;;6.27;86.68;100702.03;5037427;28;20037;-77
2020/12/08 04:21:47;;;;;;;39.40;20.80;;;;;;;6.29;86.73;100705.34;5050030;28;20025;-78
2020/12/08 04:24:13;;;;;;;46.72;23.13;;;;;;;6.29;86.64;100694.50;5041880;28;20098;-77
2020/12/08 04:26:38;;;;;;;45.50;22.90;;;;;;;6.29;86.58;100704.53;5044762;28;20029;-77
2020/12/08 04:29:03;;;;;;;40.53;22.60;;;;;;;6.29;86.77;100704.53;5082612;28;20036;-78
2020/12/08 04:31:29;;;;;;;42.90;22.70;;;;;;;6.28;86.68;100706.41;5041794;28;20082;-77
2020/12/08 04:33:54;;;;;;;40.17;22.42;;;;;;;6.28;86.86;100702.88;5048282;28;20021;-77
2020/12/08 04:36:21;;;;;;;38.35;22.23;;;;;;;6.26;86.59;100705.84;5028996;28;20028;-76
2020/12/08 04:38:47;;;;;;;45.75;23.70;;;;;;;6.26;86.77;100711.25;5050560;28;20558;-78
2020/12/08 04:41:17;;;;;;;41.28;22.17;;;;;;;6.28;86.95;100711.81;5050285;28;20033;-77
2020/12/08 04:43:42;;;;;;;38.90;21.45;;;;;;;6.26;86.93;100708.53;5049106;28;20028;-78
2020/12/08 04:46:08;;;;;;;41.53;22.27;;;;;;;6.27;87.17;100706.66;5049534;28;20413;-78
2020/12/08 04:48:36;;;;;;;40.90;21.65;;;;;;;6.27;86.65;100706.66;5048835;28;20075;-77
2020/12/08 04:51:05;;;;;;;38.63;22.42;;;;;;;6.27;86.71;100702.03;5051830;28;20032;-77
2020/12/08 04:53:31;;;;;;;41.03;22.40;;;;;;;6.26;86.84;100703.13;5029743;28;20036;-77
2020/12/08 04:55:56;;;;;;;45.53;22.33;;;;;;;6.26;86.59;100705.00;5045761;28;20116;-77
2020/12/08 04:58:22;;;;;;;42.70;22.30;;;;;;;6.26;86.71;100705.84;5046160;28;20034;-78
2020/12/08 05:00:47;;;;;;;40.42;22.48;;;;;;;6.23;86.73;100704.44;5047194;28;20033;-77
2020/12/08 05:03:12;;;;;;;38.13;20.52;;;;;;;6.25;86.58;100711.47;5048704;28;20055;-78
2020/12/08 05:05:41;;;;;;;43.10;22.23;;;;;;;6.25;86.79;100716.88;5064794;28;20017;-77
2020/12/08 05:08:13;;;;;;;35.50;20.73;;;;;;;6.23;86.90;100707.13;5049497;28;20029;-77
2020/12/08 05:10:39;;;;;;;41.03;21.80;;;;;;;6.22;86.86;100702.00;5050928;28;20486;-77
2020/12/08 05:13:08;;;;;;;39.63;19.80;;;;;;;6.19;86.92;100699.75;5082628;28;20036;-78
2020/12/08 05:15:34;;;;;;;39.58;20.85;;;;;;;6.16;86.68;100695.66;5029847;28;20363;-78
2020/12/08 05:18:10;;;;;;;40.72;21.73;;;;;;;6.16;86.76;100700.25;5066069;28;20040;-77
2020/12/08 05:20:35;;;;;;;38.15;20.98;;;;;;;6.15;86.96;100704.84;5045371;28;20040;-78
2020/12/08 05:23:01;;;;;;;38.58;20.40;;;;;;;6.14;86.84;100705.13;5049272;28;20395;-77
2020/12/08 05:25:27;;;;;;;37.03;22.25;;;;;;;6.13;86.94;100698.84;5049040;28;20056;-77
2020/12/08 05:27:54;;;;;;;37.63;20.63;;;;;;;6.12;86.85;100699.94;5048738;28;20104;-77
2020/12/08 05:30:20;;;;;;;37.28;20.00;;;;;;;6.12;87.20;100699.94;5049471;28;20037;-77
2020/12/08 05:32:45;;;;;;;34.92;19.98;;;;;;;6.11;86.69;100698.31;5045948;28;20467;-77
2020/12/08 05:35:11;;;;;;;41.22;21.30;;;;;;;6.12;86.95;100694.53;5048417;28;20402;-77
2020/12/08 05:37:38;;;;;;;39.97;21.13;;;;;;;6.14;86.80;100692.41;5047713;28;20021;-77
2020/12/08 05:40:09;;;;;;;40.70;20.55;;;;;;;6.14;86.97;100697.81;5027438;28;20033;-77
2020/12/08 05:42:36;;;;;;;37.10;20.35;;;;;;;6.13;87.01;100703.44;5049036;28;20029;-77
2020/12/08 05:45:02;;;;;;;43.92;22.08;;;;;;;6.14;86.93;100700.50;5048302;28;20429;-77
2020/12/08 05:47:27;;;;;;;43.42;21.77;;;;;;;6.15;86.96;100710.25;5050496;28;20036;-77
2020/12/08 05:50:01;;;;;;;37.30;21.48;;;;;;;6.16;86.93;100709.19;5051028;28;20033;-77
2020/12/08 05:52:28;;;;;;;42.40;22.98;;;;;;;6.14;86.62;100716.75;5049162;28;20025;-77
2020/12/08 05:55:04;;;;;;;40.88;22.80;;;;;;;6.14;86.97;100718.66;5048857;28;20040;-76
2020/12/08 05:57:31;;;;;;;43.22;23.20;;;;;;;6.14;86.92;100719.47;5047994;28;20056;-76
2020/12/08 05:59:56;;;;;;;36.33;20.90;;;;;;;6.13;86.76;100733.22;5048225;28;20029;-77
2020/12/08 06:02:31;;;;;;;44.42;23.30;;;;;;;6.14;86.90;100730.28;5053112;28;20031;-76
2020/12/08 06:04:57;;;;;;;47.63;22.85;;;;;;;6.14;86.97;100722.16;5048146;28;20025;-78
2020/12/08 06:07:27;;;;;;;44.17;21.95;;;;;;;6.14;87.05;100729.47;5052326;28;20078;-77
2020/12/08 06:10:08;;;;;;;38.88;20.67;;;;;;;6.14;87.06;100729.47;5053062;28;20028;-77
2020/12/08 06:12:34;;;;;;;45.65;23.58;;;;;;;6.13;86.96;100734.03;5049557;28;20573;-76
2020/12/08 06:15:00;;;;;;;45.03;24.17;;;;;;;6.13;86.99;100733.22;5049720;28;20036;-77
2020/12/08 06:17:25;;;;;;;42.88;22.65;;;;;;;6.11;87.07;100736.19;5052523;28;20033;-77
2020/12/08 06:19:51;;;;;;;44.03;24.50;;;;;;;6.11;86.91;100730.78;5052092;28;20394;-77
2020/12/08 06:22:17;;;;;;;45.33;23.77;;;;;;;6.12;86.88;100743.25;5053439;28;20120;-76
2020/12/08 06:24:53;;;;;;;48.38;24.13;;;;;;;6.12;86.80;100740.53;5051188;28;20028;-77
2020/12/08 06:27:21;;;;;;;43.88;24.10;;;;;;;6.12;86.79;100745.13;5052301;28;20035;-76
2020/12/08 06:29:54;;;;;;;49.13;23.95;;;;;;;6.11;86.72;100754.28;5050353;28;20028;-77
2020/12/08 06:32:23;;;;;;;;;;;;;;;6.13;86.76;100755.69;5051456;28;21579;-77
2020/12/08 06:34:48;;;;;;;47.88;23.13;;;;;;;6.12;86.75;100764.88;5051756;28;20000;-78
2020/12/08 06:37:14;;;;;;;46.28;24.75;;;;;;;6.13;87.02;100771.13;5051618;28;20021;-77
2020/12/08 06:39:39;;;;;;;44.40;25.73;;;;;;;6.12;86.94;100764.06;5049872;28;20378;-76
2020/12/08 06:42:12;;;;;;;45.55;23.58;;;;;;;6.12;86.80;100767.59;5051499;28;20036;-77
2020/12/08 06:44:37;;;;;;;44.13;23.42;;;;;;;6.13;86.75;100771.13;5031701;28;20429;-76
2020/12/08 06:47:03;;;;;;;43.92;23.85;;;;;;;6.14;86.95;100768.19;5050176;28;20020;-77
2020/12/08 06:49:42;;;;;;;45.65;23.40;;;;;;;6.12;86.91;100769.50;5052929;28;20029;-76
2020/12/08 06:52:10;;;;;;;46.33;22.48;;;;;;;6.12;86.95;100770.31;5052496;28;20024;-76
2020/12/08 06:54:36;;;;;;;44.13;23.45;;;;;;;6.12;86.74;100770.31;5049687;28;20036;-76
2020/12/08 06:57:02;;;;;;;46.70;23.35;;;;;;;6.11;86.92;100768.69;5025025;28;20573;-76
2020/12/08 06:59:28;;;;;;;38.60;21.48;;;;;;;6.12;86.81;100759.47;5050460;28;20051;-77
2020/12/08 07:01:54;;;;;;;38.88;21.50;;;;;;;6.11;86.65;100763.25;5046973;28;20486;-77
2020/12/08 07:04:19;;;;;;;42.10;21.48;;;;;;;6.10;86.66;100764.31;5049092;28;20085;-76
2020/12/08 07:06:45;;;;;;;41.72;22.65;;;;;;;6.11;86.79;100765.97;5051445;28;20033;-76
2020/12/08 07:09:10;;;;;;;39.38;23.10;;;;;;;6.08;86.82;100766.44;5047522;28;20027;-76
2020/12/08 07:11:36;;;;;;;40.25;21.95;;;;;;;6.07;86.63;100770.22;5032770;28;20749;-77
2020/12/08 07:14:04;;;;;;;43.10;22.17;;;;;;;6.07;86.85;100772.09;5049378;28;20520;-76
2020/12/08 07:16:30;;;;;;;37.95;21.40;;;;;;;6.07;86.88;100772.91;5062468;28;20025;-77
2020/12/08 07:18:56;;;;;;;39.67;21.02;;;;;;;6.08;86.58;100769.13;5030053;28;20029;-76
2020/12/08 07:21:21;;;;;;;37.22;21.00;;;;;;;6.10;86.95;100777.03;5050229;28;20032;-75
2020/12/08 07:23:50;;;;;;;38.28;20.63;;;;;;;6.09;86.81;100783.50;5051176;28;20116;-76
2020/12/08 07:26:16;;;;;;;34.03;18.77;;;;;;;6.07;86.70;100789.16;5033851;28;20021;-76
2020/12/08 07:28:42;;;;;;;33.97;19.70;;;;;;;6.05;86.63;100796.69;5028476;28;20394;-76
2020/12/08 07:31:20;;;;;;;32.90;20.02;;;;;;;6.06;86.81;100794.84;5048522;28;20394;-75
2020/12/08 07:33:46;;;;;;;34.97;20.38;;;;;;;6.06;86.48;100792.94;5047239;28;20049;-71
2020/12/08 07:36:23;;;;;;;30.52;19.33;;;;;;;6.02;86.50;100797.19;5044616;28;20533;-71
2020/12/08 07:38:51;;;;;;;35.65;19.17;;;;;;;6.04;86.56;100788.84;5047400;28;20096;-71
2020/12/08 07:41:22;;;;;;;32.17;19.98;;;;;;;6.04;86.47;100800.47;5048196;28;20028;-72
2020/12/08 07:43:48;;;;;;;29.98;18.80;;;;;;;6.05;86.77;100795.88;5049751;28;20029;-71
2020/12/08 07:46:22;;;;;;;34.13;19.42;;;;;;;6.05;86.48;100793.97;5065233;28;20424;-71
2020/12/08 07:49:07;;;;;;;29.77;17.92;;;;;;;6.04;86.45;100800.47;5035099;28;20032;-72
2020/12/08 07:51:33;;;;;;;31.98;18.25;;;;;;;6.03;86.61;100806.13;5029665;28;20044;-71
2020/12/08 07:54:00;;;;;;;30.75;17.58;;;;;;;6.01;86.66;100806.38;5042792;28;20020;-71
2020/12/08 07:56:26;;;;;;;30.77;17.70;;;;;;;6.02;86.37;100809.91;5051074;28;20052;-72
2020/12/08 07:58:51;;;;;;;27.63;17.48;;;;;;;6.02;86.50;100808.00;5051601;28;20111;-71
2020/12/08 08:01:17;;;;;;;29.65;18.23;;;;;;;6.03;86.64;100809.66;5050630;28;20471;-72
2020/12/08 08:03:42;;;;;;;29.83;18.67;;;;;;;6.04;86.57;100810.47;5048243;28;20033;-71
2020/12/08 08:06:15;;;;;;;29.70;17.63;;;;;;;6.04;86.58;100805.88;5051784;28;20029;-71
2020/12/08 08:08:40;;;;;;;34.60;18.35;;;;;;;6.06;86.55;100808.38;5047666;28;20021;-71
2020/12/08 08:11:06;;;;;;;39.28;19.15;;;;;;;6.05;86.55;100806.69;5051516;28;20025;-71
2020/12/08 08:13:31;;;;;;;30.48;18.88;;;;;;;6.03;86.25;100809.66;5047660;28;20078;-71
2020/12/08 08:15:56;;;;;;;34.03;18.63;;;;;;;6.05;86.41;100801.28;5050653;28;20032;-72
2020/12/08 08:18:22;;;;;;;30.50;17.80;;;;;;;6.04;86.13;100805.88;5043719;28;20094;-71
2020/12/08 08:20:47;;;;;;;30.95;17.38;;;;;;;6.02;86.18;100804.47;5050486;28;20031;-71
2020/12/08 08:23:13;;;;;;;25.77;17.15;;;;;;;6.01;86.39;100803.66;5049089;28;20059;-72
2020/12/08 08:25:38;;;;;;;33.35;18.42;;;;;;;6.01;86.53;100798.25;5047731;28;20021;-71
2020/12/08 08:28:03;;;;;;;27.20;17.40;;;;;;;6.04;86.58;100805.88;5051455;28;20017;-71
2020/12/08 08:30:29;;;;;;;32.15;17.13;;;;;;;6.03;86.41;100804.25;5051930;28;20025;-72
2020/12/08 08:32:54;;;;;;;25.85;16.88;;;;;;;6.03;86.34;100812.38;5049871;28;20025;-72
2020/12/08 08:35:20;;;;;;;31.63;17.65;;;;;;;6.04;86.34;100811.31;5051212;28;20083;-71
2020/12/08 08:37:47;;;;;;;25.25;16.38;;;;;;;6.03;86.08;100814.22;5082557;28;20478;-71
2020/12/08 08:40:13;;;;;;;27.90;16.50;;;;;;;6.05;86.42;100829.16;5048903;28;20052;-72
2020/12/08 08:42:38;;;;;;;25.30;15.70;;;;;;;6.04;86.11;100824.81;5048483;28;20417;-72
2020/12/08 08:45:03;;;;;;;27.00;15.23;;;;;;;6.05;86.34;100817.53;5050739;28;20028;-71
2020/12/08 08:47:29;;;;;;;24.98;16.38;;;;;;;6.07;86.39;100812.69;5049373;28;20489;-71
2020/12/08 08:49:54;;;;;;;24.92;14.63;;;;;;;6.07;86.46;100810.81;5051846;28;20067;-71
2020/12/08 08:52:20;;;;;;;26.80;15.57;;;;;;;6.07;86.13;100816.22;5048403;28;20028;-71
2020/12/08 08:54:45;;;;;;;24.05;14.70;;;;;;;6.07;86.08;100816.22;5049669;28;20028;-71
2020/12/08 08:57:10;;;;;;;25.23;13.90;;;;;;;6.08;86.23;100815.16;5046611;28;20029;-71
2020/12/08 08:59:36;;;;;;;23.02;13.70;;;;;;;6.10;86.42;100823.84;5042519;28;20017;-71
2020/12/08 09:02:01;;;;;;;24.33;14.35;;;;;;;6.08;86.18;100822.44;5050079;28;20025;-71
2020/12/08 09:04:28;;;;;;;22.08;12.93;;;;;;;6.06;85.87;100825.41;5048356;28;20029;-71
2020/12/08 09:06:53;;;;;;;17.90;12.27;;;;;;;6.07;86.10;100821.63;5064964;28;20375;-71
2020/12/08 09:09:18;;;;;;;19.20;12.68;;;;;;;6.05;85.91;100823.75;5064620;28;20029;-71
2020/12/08 09:11:44;;;;;;;20.23;12.60;;;;;;;6.07;86.00;100816.22;5042879;28;20036;-71
2020/12/08 09:14:10;;;;;;;17.55;11.32;;;;;;;6.06;86.13;100814.59;5050831;28;20410;-71
2020/12/08 09:16:35;;;;;;;19.17;11.35;;;;;;;6.06;85.89;100813.78;5043231;28;20024;-71
2020/12/08 09:19:01;;;;;;;18.58;11.13;;;;;;;6.07;85.84;100810.00;5049231;28;20124;-71
2020/12/08 09:21:26;;;;;;;18.08;11.18;;;;;;;6.08;85.68;100806.22;5051417;28;20489;-71
2020/12/08 09:23:52;;;;;;;15.73;11.07;;;;;;;6.09;85.84;100818.69;5048406;28;20415;-71
2020/12/08 09:26:17;;;;;;;17.10;10.57;;;;;;;6.06;85.78;100817.31;5048946;28;20375;-71
2020/12/08 09:28:44;;;;;;;15.02;9.95;;;;;;;6.06;85.68;100825.41;5047610;28;20124;-71
2020/12/08 09:31:09;;;;;;;16.73;10.10;;;;;;;6.06;86.05;100825.41;5047681;28;20056;-71
2020/12/08 09:33:37;;;;;;;16.13;9.55;;;;;;;6.07;85.71;100832.47;5048063;28;20024;-71
2020/12/08 09:36:02;;;;;;;13.80;8.68;;;;;;;6.07;85.67;100840.59;5053039;28;20395;-71
2020/12/08 09:38:27;;;;;;;12.77;8.88;;;;;;;6.05;85.78;100839.19;5048527;28;20041;-70
2020/12/08 09:40:53;;;;;;;14.57;8.60;;;;;;;6.03;85.67;100844.84;5063290;28;20032;-72
2020/12/08 09:43:18;;;;;;;15.70;8.98;;;;;;;6.03;85.56;100841.28;5047027;28;20536;-72
2020/12/08 09:45:44;;;;;;;12.38;7.95;;;;;;;6.02;85.90;100843.19;5054510;28;20029;-71
2020/12/08 09:48:09;;;;;;;13.98;8.43;;;;;;;6.02;85.96;100850.50;5083897;28;20032;-71
2020/12/08 09:50:34;;;;;;;12.82;8.05;;;;;;;6.03;85.55;100850.25;5052780;28;20041;-71
2020/12/08 09:53:00;;;;;;;9.27;7.13;;;;;;;6.05;85.40;100850.00;5053987;28;20037;-71
2020/12/08 09:55:25;;;;;;;9.73;7.25;;;;;;;6.03;85.63;100847.56;5054510;28;20363;-71
2020/12/08 09:57:51;;;;;;;9.63;6.40;;;;;;;6.05;85.71;100847.28;5050448;28;20320;-71
2020/12/08 10:00:16;;;;;;;10.00;6.50;;;;;;;6.05;85.59;100850.81;5045774;28;20032;-71
2020/12/08 10:02:41;;;;;;;10.10;5.88;;;;;;;6.04;85.68;100849.19;5081481;28;20036;-71
2020/12/08 10:05:07;;;;;;;10.23;6.70;;;;;;;6.03;85.65;100842.16;5053445;28;20478;-72
2020/12/08 10:07:32;;;;;;;9.05;6.25;;;;;;;6.04;85.52;100853.78;5066944;28;20025;-71
2020/12/08 10:09:57;;;;;;;9.88;6.22;;;;;;;6.03;85.74;100846.72;5052167;28;20393;-71
2020/12/08 10:12:23;;;;;;;12.20;6.68;;;;;;;6.01;85.30;100849.69;5034325;28;20036;-71
2020/12/08 10:14:48;;;;;;;7.28;5.55;;;;;;;5.96;85.29;100844.16;5053662;28;20536;-71
2020/12/08 10:17:14;;;;;;;7.22;4.90;;;;;;;5.94;85.58;100838.97;5053604;28;20025;-71
2020/12/08 10:19:46;;;;;;;7.85;5.78;;;;;;;5.95;85.48;100831.72;5054439;28;20024;-71
2020/12/08 10:22:12;;;;;;;8.45;5.22;;;;;;;5.94;85.52;100843.56;5045478;28;20505;-71
2020/12/08 10:24:38;;;;;;;9.38;4.65;;;;;;;5.93;85.29;100845.47;5053888;28;20033;-72
2020/12/08 10:27:04;;;;;;;7.22;5.05;;;;;;;5.91;85.14;100838.63;5051845;28;20036;-71
2020/12/08 10:29:30;;;;;;;7.43;4.78;;;;;;;5.92;85.45;100834.84;5052930;28;20108;-71
2020/12/08 10:31:55;;;;;;;7.60;5.05;;;;;;;5.90;85.16;100845.91;5050660;28;20033;-72
2020/12/08 10:34:21;;;;;;;6.63;4.53;;;;;;;5.89;85.20;100838.88;5051954;28;20029;-71
2020/12/08 10:36:47;;;;;;;7.07;4.50;;;;;;;5.92;85.09;100840.25;5054360;28;20036;-72
2020/12/08 10:39:12;;;;;;;7.43;4.63;;;;;;;5.93;85.43;100836.50;5051943;28;20036;-71
2020/12/08 10:41:38;;;;;;;9.05;4.90;;;;;;;5.92;85.27;100834.84;5052526;28;20367;-72
2020/12/08 10:44:06;;;;;;;7.38;4.72;;;;;;;5.91;85.07;100835.91;5052355;28;20025;-71
2020/12/08 10:46:31;;;;;;;6.05;4.53;;;;;;;5.91;85.17;100833.22;5039449;28;20037;-71
2020/12/08 10:48:56;;;;;;;7.32;5.00;;;;;;;5.91;84.83;100827.78;5051842;28;20045;-71
2020/12/08 10:51:22;;;;;;;9.30;4.90;;;;;;;5.88;85.14;100833.69;5047759;28;20051;-71
2020/12/08 10:53:49;;;;;;;7.15;4.78;;;;;;;5.86;85.13;100831.22;5048861;28;20013;-71
2020/12/08 10:56:18;;;;;;;9.27;5.05;;;;;;;5.86;85.10;100830.41;5052280;28;20027;-71
2020/12/08 10:58:44;;;;;;;6.15;4.53;;;;;;;5.87;84.86;100841.00;5028419;28;20021;-72
2020/12/08 11:01:09;;;;;;;7.90;5.03;;;;;;;5.86;84.99;100841.22;5049822;28;20079;-72
2020/12/08 11:03:35;;;;;;;6.65;4.78;;;;;;;5.83;85.12;100836.31;5047566;28;20032;-71
2020/12/08 11:06:00;;;;;;;7.68;5.15;;;;;;;5.81;85.06;100841.97;5044362;28;20094;-71
2020/12/08 11:08:25;;;;;;;6.30;5.05;;;;;;;5.83;85.18;100841.72;5048987;28;20028;-72
2020/12/08 11:10:51;;;;;;;11.15;5.47;;;;;;;5.81;85.09;100838.41;5052076;28;20039;-72
2020/12/08 11:13:16;;;;;;;6.38;4.35;;;;;;;5.76;85.00;100837.25;5047036;28;20021;-71
2020/12/08 11:15:42;;;;;;;8.65;6.05;;;;;;;5.71;84.83;100826.34;5049098;28;20464;-71